createdAt,value
2018-05-29T00:01:02.065Z,22.10
2018-05-29T00:03:33.321Z,22.00
2018-05-29T00:06:04.445Z,22.00
2018-05-29T00:08:35.357Z,21.90
2018-05-29T00:11:06.521Z,21.80
2018-05-29T00:13:38.117Z,21.70
2018-05-29T00:16:10.494Z,21.70
2018-05-29T00:18:42.267Z,21.70
2018-05-29T00:21:13.711Z,21.60
2018-05-29T00:23:45.546Z,21.60
2018-05-29T00:26:17.613Z,21.40
2018-05-29T00:28:49.469Z,21.40
2018-05-29T00:31:20.566Z,21.40
2018-05-29T00:33:51.186Z,21.30
2018-05-29T00:36:22.003Z,21.30
2018-05-29T00:38:53.299Z,21.20
2018-05-29T00:41:24.526Z,21.20
2018-05-29T00:43:55.893Z,21.20
2018-05-29T00:46:27.257Z,21.20
2018-05-29T00:48:58.409Z,21.10
2018-05-29T00:51:29.729Z,21.10
2018-05-29T00:54:00.707Z,21.00
2018-05-29T00:56:33.267Z,21.00
2018-05-29T00:59:04.388Z,21.00
2018-05-29T01:01:35.295Z,21.00
2018-05-29T01:13:15.452Z,20.70
2018-05-29T01:15:46.242Z,20.70
2018-05-29T01:18:16.874Z,20.70
2018-05-29T01:20:47.738Z,20.60
2018-05-29T01:23:19.338Z,20.60
2018-05-29T01:25:50.157Z,20.60
2018-05-29T01:28:23.129Z,20.50
2018-05-29T01:30:53.730Z,20.50
2018-05-29T01:33:25.620Z,20.50
2018-05-29T01:35:57.007Z,20.30
2018-05-29T01:38:28.767Z,20.30
2018-05-29T01:40:59.785Z,20.30
2018-05-29T01:43:32.328Z,20.30
2018-05-29T01:46:05.145Z,20.30
2018-05-29T01:48:37.648Z,20.30
2018-05-29T01:51:11.685Z,20.20
2018-05-29T01:53:46.323Z,20.20
2018-05-29T01:56:24.161Z,20.10
2018-05-29T01:58:56.581Z,20.10
2018-05-29T02:01:29.839Z,20.10
2018-05-29T02:04:05.227Z,20.10
2018-05-29T02:06:39.146Z,20.10
2018-05-29T02:09:15.116Z,20.00
2018-05-29T02:11:49.828Z,20.00
2018-05-29T02:14:26.250Z,20.10
2018-05-29T02:16:59.207Z,20.00
2018-05-29T02:19:31.993Z,20.00
2018-05-29T02:22:04.794Z,20.00
2018-05-29T02:24:39.876Z,19.90
2018-05-29T02:27:13.048Z,19.90
2018-05-29T02:29:47.146Z,19.90
2018-05-29T02:32:20.453Z,20.00
2018-05-29T02:34:54.669Z,20.00
2018-05-29T02:37:30.668Z,19.90
2018-05-29T02:40:05.495Z,19.80
2018-05-29T02:42:40.104Z,19.80
2018-05-29T02:45:12.724Z,19.80
2018-05-29T02:47:46.177Z,19.70
2018-05-29T02:50:19.637Z,19.60
2018-05-29T02:52:53.186Z,19.60
2018-05-29T02:55:26.465Z,19.60
2018-05-29T02:58:01.942Z,19.50
2018-05-29T03:00:37.255Z,19.40
2018-05-29T03:03:12.862Z,19.40
2018-05-29T03:05:46.112Z,19.40
2018-05-29T03:08:20.359Z,19.50
2018-05-29T03:10:52.626Z,19.40
2018-05-29T03:13:25.205Z,19.50
2018-05-29T03:15:58.735Z,19.50
2018-05-29T03:18:32.385Z,19.40
2018-05-29T03:21:05.928Z,19.40
2018-05-29T03:23:40.651Z,19.40
2018-05-29T03:26:14.695Z,19.30
2018-05-29T03:28:48.022Z,19.30
2018-05-29T03:31:20.679Z,19.30
2018-05-29T03:33:54.714Z,19.30
2018-05-29T03:36:29.517Z,19.30
2018-05-29T03:39:03.867Z,19.30
2018-05-29T03:41:37.068Z,19.30
2018-05-29T03:44:13.804Z,19.30
2018-05-29T03:46:47.657Z,19.30
2018-05-29T03:49:22.025Z,19.30
2018-05-29T03:51:55.556Z,19.30
2018-05-29T03:54:28.387Z,19.30
2018-05-29T03:57:00.508Z,19.30
2018-05-29T03:59:35.268Z,19.30
2018-05-29T04:02:08.397Z,19.30
2018-05-29T04:04:41.627Z,19.20
2018-05-29T04:07:15.321Z,19.30
2018-05-29T04:09:50.189Z,19.30
2018-05-29T04:12:21.550Z,19.20
2018-05-29T04:14:52.228Z,19.20
2018-05-29T04:17:23.658Z,19.30
2018-05-29T04:19:57.197Z,19.30
2018-05-29T04:22:28.427Z,19.30
2018-05-29T04:25:01.386Z,19.30
2018-05-29T04:27:36.636Z,19.30
2018-05-29T04:30:11.419Z,19.30
2018-05-29T04:32:47.867Z,19.40
2018-05-29T04:35:20.879Z,19.40
2018-05-29T04:37:53.381Z,19.40
2018-05-29T04:40:31.134Z,19.40
2018-05-29T04:43:04.859Z,19.40
2018-05-29T04:45:37.745Z,19.40
2018-05-29T04:48:10.429Z,19.50
2018-05-29T04:50:44.101Z,19.50
2018-05-29T04:53:14.833Z,19.50
2018-05-29T04:55:48.003Z,19.60
2018-05-29T04:58:21.433Z,19.60
2018-05-29T05:00:52.565Z,19.60
2018-05-29T05:03:25.247Z,19.70
2018-05-29T05:06:01.813Z,19.70
2018-05-29T05:08:34.110Z,19.80
2018-05-29T05:11:05.067Z,19.80
2018-05-29T05:13:35.850Z,19.90
2018-05-29T05:16:07.396Z,20.00
2018-05-29T05:18:38.139Z,20.10
2018-05-29T05:21:09.784Z,20.40
2018-05-29T05:23:40.605Z,20.40
2018-05-29T05:26:12.334Z,20.90
2018-05-29T05:28:43.441Z,21.00
2018-05-29T05:31:14.422Z,21.00
2018-05-29T05:33:45.329Z,21.20
2018-05-29T05:36:16.632Z,21.40
2018-05-29T05:38:47.658Z,21.50
2018-05-29T05:41:19.071Z,21.60
2018-05-29T05:43:50.736Z,21.80
2018-05-29T05:46:22.846Z,22.00
2018-05-29T05:48:54.167Z,22.30
2018-05-29T05:51:30.639Z,22.30
2018-05-29T05:54:02.177Z,22.40
2018-05-29T05:56:32.837Z,22.40
2018-05-29T05:59:04.657Z,22.50
2018-05-29T06:01:35.582Z,22.50
2018-05-29T06:04:06.620Z,22.80
2018-05-29T06:06:39.791Z,23.10
2018-05-29T06:09:10.597Z,23.30
2018-05-29T06:11:42.239Z,23.70
2018-05-29T06:14:15.184Z,23.90
2018-05-29T06:16:46.197Z,23.90
2018-05-29T06:19:17.652Z,23.80
2018-05-29T06:21:48.310Z,23.80
2018-05-29T06:24:18.969Z,24.00
2018-05-29T06:26:50.359Z,24.40
2018-05-29T06:29:21.013Z,24.40
2018-05-29T06:31:51.735Z,24.70
2018-05-29T06:34:22.797Z,24.90
2018-05-29T06:36:53.734Z,25.10
2018-05-29T06:39:24.422Z,25.50
2018-05-29T06:41:55.705Z,25.80
2018-05-29T06:44:27.361Z,26.10
2018-05-29T06:46:58.142Z,26.30
2018-05-29T06:49:29.574Z,26.40
2018-05-29T06:52:01.114Z,25.90
2018-05-29T06:54:31.958Z,26.00
2018-05-29T06:57:03.238Z,26.50
2018-05-29T06:59:34.123Z,26.50
2018-05-29T07:02:05.447Z,26.80
2018-05-29T07:04:37.630Z,27.30
2018-05-29T07:07:08.878Z,27.40
2018-05-29T07:09:41.562Z,27.10
2018-05-29T07:12:12.301Z,27.10
2018-05-29T07:14:43.409Z,26.70
2018-05-29T07:17:13.922Z,26.60
2018-05-29T07:19:44.876Z,27.10
2018-05-29T07:22:15.375Z,27.60
2018-05-29T07:24:46.385Z,28.10
2018-05-29T07:27:16.748Z,28.40
2018-05-29T07:29:48.356Z,29.00
2018-05-29T07:32:18.938Z,28.90
2018-05-29T07:34:50.656Z,28.90
2018-05-29T07:37:22.927Z,28.90
2018-05-29T07:39:54.927Z,29.10
2018-05-29T07:42:26.522Z,29.30
2018-05-29T07:44:58.787Z,30.30
2018-05-29T07:47:31.185Z,30.20
2018-05-29T07:50:02.778Z,30.90
2018-05-29T07:52:33.494Z,30.80
2018-05-29T07:55:04.525Z,31.10
2018-05-29T07:57:35.295Z,31.20
2018-05-29T08:00:05.905Z,31.30
2018-05-29T08:02:36.617Z,31.30
2018-05-29T08:05:07.357Z,31.50
2018-05-29T08:07:39.375Z,31.40
2018-05-29T08:10:09.942Z,31.50
2018-05-29T08:12:41.010Z,31.80
2018-05-29T08:15:12.517Z,32.00
2018-05-29T08:17:43.365Z,32.30
2018-05-29T08:20:14.027Z,32.50
2018-05-29T08:22:45.464Z,32.30
2018-05-29T08:25:17.532Z,32.00
2018-05-29T08:27:48.073Z,32.00
2018-05-29T08:30:18.761Z,31.30
2018-05-29T08:32:49.298Z,30.50
2018-05-29T08:35:20.932Z,31.00
2018-05-29T08:37:51.402Z,31.70
2018-05-29T08:40:24.298Z,31.90
2018-05-29T08:42:55.398Z,31.90
2018-05-29T08:45:27.401Z,32.30
2018-05-29T08:47:57.921Z,32.70
2018-05-29T08:50:28.819Z,33.10
2018-05-29T08:52:59.469Z,32.70
2018-05-29T08:55:29.815Z,32.80
2018-05-29T08:58:00.432Z,32.90
2018-05-29T09:00:32.193Z,33.10
2018-05-29T09:03:02.723Z,33.10
2018-05-29T09:05:34.129Z,33.10
2018-05-29T09:08:04.860Z,32.20
2018-05-29T09:10:36.785Z,32.80
2018-05-29T09:13:07.670Z,32.80
2018-05-29T09:15:39.242Z,33.10
2018-05-29T09:18:12.498Z,33.10
2018-05-29T09:20:43.187Z,32.70
2018-05-29T09:23:13.786Z,32.90
2018-05-29T09:25:44.101Z,33.20
2018-05-29T09:28:14.627Z,32.90
2018-05-29T09:30:45.510Z,33.30
2018-05-29T09:33:16.340Z,33.20
2018-05-29T09:35:47.034Z,33.30
2018-05-29T09:38:18.787Z,33.60
2018-05-29T09:40:49.800Z,33.90
2018-05-29T09:43:20.565Z,34.10
2018-05-29T09:46:13.912Z,34.30
2018-05-29T09:48:44.742Z,34.30
2018-05-29T09:51:15.736Z,34.10
2018-05-29T09:53:46.191Z,33.90
2018-05-29T09:56:18.025Z,33.60
2018-05-29T09:58:48.755Z,33.10
2018-05-29T10:01:20.150Z,33.00
2018-05-29T10:03:51.189Z,33.10
2018-05-29T10:06:23.021Z,33.30
2018-05-29T10:09:01.908Z,33.70
2018-05-29T10:11:38.851Z,33.30
2018-05-29T10:14:09.873Z,33.50
2018-05-29T10:16:41.443Z,33.50
2018-05-29T10:19:12.516Z,32.90
2018-05-29T10:21:45.070Z,33.40
2018-05-29T10:24:20.597Z,33.50
2018-05-29T10:26:51.380Z,33.00
2018-05-29T10:29:21.948Z,33.10
2018-05-29T10:32:00.133Z,33.00
2018-05-29T10:34:31.694Z,33.00
2018-05-29T10:37:03.192Z,33.30
2018-05-29T10:39:34.554Z,33.60
2018-05-29T10:42:05.633Z,33.90
2018-05-29T10:44:38.212Z,32.80
2018-05-29T10:47:10.769Z,32.50
2018-05-29T10:49:41.362Z,32.90
2018-05-29T10:52:12.209Z,33.20
2018-05-29T10:54:43.110Z,33.90
2018-05-29T10:57:14.842Z,34.10
2018-05-29T10:59:46.184Z,33.50
2018-05-29T11:02:16.893Z,33.40
2018-05-29T11:04:47.683Z,33.50
2018-05-29T11:07:19.843Z,33.50
2018-05-29T11:09:52.254Z,34.00
2018-05-29T11:12:22.908Z,33.90
2018-05-29T11:14:54.422Z,33.70
2018-05-29T11:17:25.708Z,33.50
2018-05-29T11:19:56.657Z,33.50
2018-05-29T11:22:28.746Z,34.00
2018-05-29T11:24:59.963Z,34.10
2018-05-29T11:27:30.657Z,34.30
2018-05-29T11:30:01.659Z,33.50
2018-05-29T11:32:33.282Z,33.70
2018-05-29T11:35:04.394Z,34.30
2018-05-29T11:37:35.042Z,34.00
2018-05-29T11:40:07.217Z,34.60
2018-05-29T11:42:37.734Z,34.90
2018-05-29T11:45:09.573Z,35.20
2018-05-29T11:47:39.958Z,35.20
2018-05-29T11:50:11.025Z,34.80
2018-05-29T11:52:42.161Z,34.30
2018-05-29T11:55:12.609Z,34.10
2018-05-29T11:57:44.265Z,34.10
2018-05-29T12:00:14.990Z,34.00
2018-05-29T12:02:46.309Z,34.30
2018-05-29T12:05:18.103Z,34.50
2018-05-29T12:07:49.829Z,34.30
2018-05-29T12:10:20.979Z,34.30
2018-05-29T12:12:54.435Z,34.30
2018-05-29T12:15:27.725Z,34.30
2018-05-29T12:17:59.410Z,34.10
2018-05-29T12:20:32.150Z,33.80
2018-05-29T12:23:05.040Z,33.40
2018-05-29T12:25:37.621Z,33.60
2018-05-29T12:28:09.407Z,33.50
2018-05-29T12:30:41.166Z,34.00
2018-05-29T12:33:14.158Z,34.60
2018-05-29T12:35:45.221Z,34.00
2018-05-29T12:38:17.221Z,34.20
2018-05-29T12:40:50.068Z,34.10
2018-05-29T12:43:23.620Z,34.00
2018-05-29T12:45:58.884Z,33.30
2018-05-29T12:48:31.481Z,32.90
2018-05-29T12:51:03.554Z,33.10
2018-05-29T12:53:34.498Z,33.10
2018-05-29T12:56:11.065Z,33.20
2018-05-29T12:58:43.074Z,33.50
2018-05-29T13:01:15.581Z,33.70
2018-05-29T13:03:47.794Z,33.30
2018-05-29T13:06:18.384Z,32.60
2018-05-29T13:08:49.345Z,32.60
2018-05-29T13:11:21.260Z,32.70
2018-05-29T13:13:51.900Z,32.50
2018-05-29T13:16:22.608Z,32.50
2018-05-29T13:18:52.954Z,32.60
2018-05-29T13:21:24.234Z,32.50
2018-05-29T13:23:55.472Z,32.60
2018-05-29T13:26:26.076Z,32.10
2018-05-29T13:28:56.692Z,32.10
2018-05-29T13:31:28.001Z,32.10
2018-05-29T13:33:59.508Z,32.00
2018-05-29T13:36:30.438Z,32.50
2018-05-29T13:39:02.090Z,32.70
2018-05-29T13:41:32.725Z,32.50
2018-05-29T13:44:03.280Z,32.10
2018-05-29T13:46:34.176Z,31.90
2018-05-29T13:49:06.273Z,32.50
2018-05-29T13:51:37.800Z,32.80
2018-05-29T13:54:08.456Z,33.30
2018-05-29T13:56:41.397Z,33.80
2018-05-29T13:59:12.320Z,33.80
2018-05-29T14:01:46.494Z,33.60
2018-05-29T14:04:21.017Z,34.00
2018-05-29T14:07:01.219Z,33.70
2018-05-29T14:09:33.266Z,33.40
2018-05-29T14:12:04.842Z,33.00
2018-05-29T14:14:36.574Z,33.10
2018-05-29T14:17:08.038Z,33.80
2018-05-29T14:19:38.581Z,33.80
2018-05-29T14:22:10.275Z,34.10
2018-05-29T14:24:42.524Z,33.30
2018-05-29T14:27:14.157Z,32.80
2018-05-29T14:29:46.384Z,32.10
2018-05-29T14:32:17.976Z,32.10
2018-05-29T14:34:48.939Z,32.00
2018-05-29T14:37:19.760Z,31.90
2018-05-29T14:39:50.566Z,32.10
2018-05-29T14:42:22.130Z,32.30
2018-05-29T14:44:52.815Z,32.60
2018-05-29T14:47:23.837Z,32.80
2018-05-29T14:49:55.554Z,32.10
2018-05-29T14:52:26.510Z,32.10
2018-05-29T14:54:58.338Z,32.10
2018-05-29T14:57:29.787Z,31.90
2018-05-29T15:00:00.330Z,32.00
2018-05-29T15:02:31.713Z,31.80
2018-05-29T15:05:02.529Z,31.80
2018-05-29T15:07:33.529Z,31.80
2018-05-29T15:10:03.956Z,31.50
2018-05-29T15:12:35.103Z,31.40
2018-05-29T15:15:05.780Z,31.20
2018-05-29T15:17:36.564Z,31.00
2018-05-29T15:20:07.049Z,31.00
2018-05-29T15:22:37.598Z,30.70
2018-05-29T15:25:13.999Z,30.80
2018-05-29T15:27:51.488Z,30.90
2018-05-29T15:30:22.871Z,30.60
2018-05-29T15:32:53.302Z,30.60
2018-05-29T15:35:24.236Z,30.30
2018-05-29T15:37:54.926Z,30.30
2018-05-29T15:40:25.746Z,30.10
2018-05-29T15:42:57.820Z,29.90
2018-05-29T15:45:28.577Z,29.40
2018-05-29T15:47:59.021Z,29.20
2018-05-29T15:50:30.892Z,29.00
2018-05-29T15:53:01.690Z,29.00
2018-05-29T15:55:32.573Z,29.00
2018-05-29T15:58:03.813Z,29.00
2018-05-29T16:00:35.228Z,28.80
2018-05-29T16:03:06.183Z,28.80
2018-05-29T16:05:38.295Z,28.90
2018-05-29T16:08:10.163Z,28.80
2018-05-29T16:10:42.106Z,28.70
2018-05-29T16:13:15.596Z,28.70
2018-05-29T16:15:47.339Z,28.70
2018-05-29T16:18:18.168Z,28.70
2018-05-29T16:20:49.191Z,28.50
2018-05-29T16:23:20.581Z,28.40
2018-05-29T16:25:51.671Z,28.20
2018-05-29T16:28:22.346Z,27.90
2018-05-29T16:30:54.019Z,27.70
2018-05-29T16:33:24.500Z,27.80
2018-05-29T16:35:55.968Z,27.80
2018-05-29T16:38:27.309Z,27.70
2018-05-29T16:40:58.868Z,27.60
2018-05-29T16:43:32.713Z,27.30
2018-05-29T16:46:04.332Z,27.10
2018-05-29T16:48:42.861Z,27.10
2018-05-29T16:52:06.263Z,27.10
2018-05-29T16:54:39.580Z,26.30
2018-05-29T16:57:12.203Z,25.50
2018-05-29T16:59:45.484Z,25.30
2018-05-29T17:02:18.346Z,25.00
2018-05-29T17:04:51.754Z,24.50
2018-05-29T17:07:27.456Z,24.10
2018-05-29T17:10:04.165Z,23.60
2018-05-29T17:12:36.863Z,23.10
2018-05-29T17:15:09.486Z,23.10
2018-05-29T17:17:42.188Z,23.30
2018-05-29T17:20:14.496Z,22.40
2018-05-29T17:22:46.993Z,22.00
2018-05-29T17:25:19.034Z,22.10
2018-05-29T17:27:51.530Z,22.30
2018-05-29T17:30:23.249Z,22.20
2018-05-29T17:35:33.832Z,22.10
2018-05-29T17:38:07.215Z,22.10
2018-05-29T17:40:38.764Z,22.00
2018-05-29T17:43:10.338Z,21.70
2018-05-29T17:45:42.328Z,21.70
2018-05-29T17:48:14.769Z,21.40
2018-05-29T17:50:47.688Z,21.30
2018-05-29T17:53:21.343Z,21.30
2018-05-29T17:55:53.618Z,21.60
2018-05-29T17:58:26.401Z,21.90
2018-05-29T18:00:59.294Z,22.40
2018-05-29T18:03:30.197Z,22.40
2018-05-29T18:06:02.304Z,22.60
2018-05-29T18:08:35.659Z,22.70
2018-05-29T18:11:08.642Z,22.70
2018-05-29T18:13:40.834Z,22.70
2018-05-29T18:16:12.688Z,22.60
2018-05-29T18:18:43.453Z,22.70
2018-05-29T18:21:14.932Z,22.60
2018-05-29T18:23:47.310Z,22.50
2018-05-29T18:26:18.977Z,22.60
2018-05-29T18:28:50.536Z,22.50
2018-05-29T18:31:23.869Z,22.40
2018-05-29T18:33:54.828Z,22.10
2018-05-29T18:36:27.761Z,22.10
2018-05-29T18:38:59.811Z,22.00
2018-05-29T18:41:32.590Z,21.90
2018-05-29T18:44:04.657Z,22.00
2018-05-29T18:46:35.740Z,22.00
2018-05-29T18:49:07.044Z,22.00
2018-05-29T18:51:38.951Z,22.00
2018-05-29T18:54:11.078Z,21.90
2018-05-29T18:56:42.998Z,21.90
2018-05-29T18:59:15.753Z,21.80
2018-05-29T19:01:47.048Z,21.80
2018-05-29T19:04:18.893Z,21.40
2018-05-29T19:06:51.694Z,21.30
2018-05-29T19:09:23.325Z,21.10
2018-05-29T19:11:54.849Z,20.90
2018-05-29T19:14:26.585Z,20.90
2018-05-29T19:16:57.801Z,20.70
2018-05-29T19:19:29.465Z,20.30
2018-05-29T19:22:00.824Z,20.20
2018-05-29T19:24:31.613Z,20.20
2018-05-29T19:27:02.404Z,20.20
2018-05-29T19:29:35.659Z,20.40
2018-05-29T19:32:06.505Z,20.30
2018-05-29T19:34:37.579Z,20.40
2018-05-29T19:37:09.663Z,20.50
2018-05-29T19:39:41.698Z,20.70
2018-05-29T19:42:14.758Z,20.80
2018-05-29T19:44:47.285Z,20.80
2018-05-29T19:47:19.566Z,21.00
2018-05-29T19:49:51.271Z,21.10
2018-05-29T19:52:21.950Z,21.10
2018-05-29T19:54:53.910Z,21.20
2018-05-29T19:57:25.218Z,21.20
2018-05-29T19:59:56.688Z,21.20
2018-05-29T20:02:28.529Z,21.30
2018-05-29T20:05:01.516Z,21.40
2018-05-29T20:07:32.495Z,21.40
2018-05-29T20:10:03.307Z,21.40
2018-05-29T20:12:34.333Z,21.40
2018-05-29T20:15:05.441Z,21.30
2018-05-29T20:17:36.350Z,21.40
2018-05-29T20:20:07.125Z,21.30
2018-05-29T20:22:38.063Z,21.30
2018-05-29T20:25:09.381Z,21.30
2018-05-29T20:27:40.169Z,21.20
2018-05-29T20:30:11.199Z,21.20
2018-05-29T20:32:44.485Z,21.10
2018-05-29T20:35:15.127Z,21.10
2018-05-29T20:37:46.099Z,21.10
2018-05-29T20:40:17.268Z,20.90
2018-05-29T20:42:48.106Z,20.80
2018-05-29T20:45:37.011Z,20.70
2018-05-29T20:48:17.670Z,20.70
2018-05-29T20:51:06.648Z,20.70
2018-05-29T20:53:37.193Z,20.70
2018-05-29T20:56:08.145Z,20.60
2018-05-29T20:58:40.414Z,20.50
2018-05-29T21:01:11.485Z,20.50
2018-05-29T21:03:43.616Z,20.50
2018-05-29T21:06:14.239Z,20.50
2018-05-29T21:08:45.755Z,20.40
2018-05-29T21:11:16.710Z,20.40
2018-05-29T21:13:49.133Z,20.40
2018-05-29T21:16:20.845Z,20.40
2018-05-29T21:18:51.524Z,20.40
2018-05-29T21:21:22.707Z,20.40
2018-05-29T21:23:56.093Z,20.40
2018-05-29T21:26:27.305Z,20.40
2018-05-29T21:28:58.379Z,20.40
2018-05-29T21:31:29.491Z,20.40
2018-05-29T21:34:01.621Z,20.30
2018-05-29T21:36:33.249Z,20.30
2018-05-29T21:39:04.685Z,20.40
2018-05-29T21:41:35.583Z,20.40
2018-05-29T21:44:06.609Z,20.40
2018-05-29T21:46:37.534Z,20.40
2018-05-29T21:49:08.464Z,20.50
2018-05-29T21:51:40.122Z,20.50
2018-05-29T21:54:11.250Z,20.40
2018-05-29T21:56:42.496Z,20.30
2018-05-29T21:59:14.010Z,20.30
2018-05-29T22:01:45.885Z,20.30
2018-05-29T22:04:17.477Z,20.40
2018-05-29T22:06:49.160Z,20.40
2018-05-29T22:09:20.400Z,20.30
2018-05-29T22:11:51.471Z,20.30
2018-05-29T22:14:22.824Z,20.30
2018-05-29T22:16:53.775Z,20.30
2018-05-29T22:19:24.690Z,20.10
2018-05-29T22:21:56.811Z,19.90
2018-05-29T22:24:28.136Z,19.80
2018-05-29T22:26:58.912Z,19.80
2018-05-29T22:29:31.312Z,19.80
2018-05-29T22:32:02.326Z,19.80
2018-05-29T22:34:37.055Z,19.70
2018-05-29T22:37:09.383Z,19.50
2018-05-29T22:39:40.843Z,19.50
2018-05-29T22:42:11.407Z,19.50
2018-05-29T22:44:42.817Z,19.50
2018-05-29T22:47:14.804Z,19.30
2018-05-29T22:49:45.731Z,19.30
2018-05-29T22:52:16.667Z,19.30
2018-05-29T22:54:49.217Z,19.20
2018-05-29T22:57:19.747Z,19.20
2018-05-29T22:59:52.053Z,19.20
2018-05-29T23:02:22.998Z,19.30
2018-05-29T23:04:55.246Z,19.30
2018-05-29T23:07:26.379Z,19.30
2018-05-29T23:09:58.687Z,19.20
2018-05-29T23:12:29.305Z,19.20
2018-05-29T23:15:00.711Z,19.20
2018-05-29T23:17:31.535Z,19.10
2018-05-29T23:20:03.887Z,19.30
2018-05-29T23:22:34.778Z,19.30
2018-05-29T23:25:06.778Z,19.50
2018-05-29T23:27:37.915Z,19.50
2018-05-29T23:30:08.835Z,19.60
2018-05-29T23:32:39.592Z,19.70
2018-05-29T23:35:11.540Z,19.60
2018-05-29T23:37:43.381Z,19.50
2018-05-29T23:40:14.386Z,19.60
2018-05-29T23:42:45.619Z,19.60
2018-05-29T23:45:16.523Z,19.70
2018-05-29T23:47:47.206Z,19.80
2018-05-29T23:50:18.847Z,19.90
2018-05-29T23:52:51.340Z,19.90
2018-05-29T23:55:24.299Z,19.90
2018-05-29T23:57:55.351Z,19.80
